Latest Weather Observations for Biloela

IDQ60801

Issued at 10:02 pm EST Sunday 29 March 2015 (issued every 30 minutes, with the page automatically refreshed every 10 minutes)

About weather observations | Map of weather stations | Latest weather observations for QLD | Other Formats
Station Details ID: 039089 Name: THANGOOL AIRPORT Lat: -24.49 Lon: 150.57 Height: 193.1 m
Data from the previous 72 hours. | See also: Recent months at Biloela
Date/Time
EST
Temp
°C
App
Temp
°C
Dew
Point
Rel
Hum
%
Delta-T
°C
Wind Press
QNH
hPa
Press
MSL
hPa
Rain
since 9 am
mm
Dir
 
Spd
km/h
Gust
km/h
Spd
kts
Gust
kts
29/10:00pm 20.6 23.0 17.0 80 2.2 CALM 0 0 0 0 1021.8 - 0.0
29/09:30pm 20.4 22.6 16.6 79 2.3 CALM 0 0 0 0 1021.8 - 0.0
29/09:00pm 20.7 22.8 16.3 76 2.7 CALM 0 0 0 0 1021.6 1020.7 0.0
29/08:30pm 22.1 23.7 16.8 72 3.3 SSE 4 7 2 4 1021.5 - 0.0
29/08:00pm 22.5 24.6 16.3 68 3.8 CALM 0 0 0 0 1021.1 - 0.0
29/07:30pm 23.3 25.3 16.1 64 4.4 CALM 0 0 0 0 1020.9 - 0.0
29/07:00pm 24.2 24.9 16.2 61 4.9 ESE 7 11 4 6 1020.7 - 0.0
29/06:30pm 24.7 25.0 15.9 58 5.4 ESE 9 11 5 6 1020.5 - 0.0
29/06:00pm 25.3 24.3 15.6 55 5.9 E 15 20 8 11 1020.2 1019.2 0.0
29/05:30pm 25.8 24.0 15.5 53 6.3 E 19 26 10 14 1019.9 - 0.0
29/05:00pm 27.1 25.7 17.0 54 6.3 E 20 28 11 15 1019.5 - 0.0
29/04:30pm 27.5 25.5 16.5 51 6.9 E 22 32 12 17 1019.3 - 0.0
29/04:00pm 28.4 27.1 17.3 51 7.0 E 20 30 11 16 1019.3 - 0.0
29/03:30pm 28.7 26.8 17.6 51 7.1 E 24 33 13 18 1019.3 - 0.0
29/03:00pm 28.8 26.8 18.3 53 6.8 E 26 33 14 18 1019.3 1018.3 0.0
29/02:30pm 28.3 27.0 18.1 54 6.5 E 22 32 12 17 1019.5 - 0.0
29/02:00pm 28.1 27.9 18.5 56 6.2 E 17 26 9 14 1019.7 - 0.0
29/01:30pm 27.3 27.1 18.6 59 5.6 ESE 17 26 9 14 1020.1 - 0.0
29/01:00pm 27.0 27.2 19.4 63 4.9 ESE 17 24 9 13 1020.5 - 0.0
29/12:30pm 27.1 28.1 20.2 66 4.5 SE 15 26 8 14 1020.9 - 0.0
29/12:00pm 25.9 27.1 20.0 70 3.9 ESE 13 22 7 12 1021.3 1020.4 0.0
29/11:30am 26.7 26.4 19.6 65 4.6 E 20 30 11 16 1021.7 - 0.0
29/11:00am 26.6 26.1 20.0 67 4.3 E 22 33 12 18 1021.9 - 0.0
29/10:30am 27.1 26.6 19.9 64 4.7 ESE 22 32 12 17 1022.1 - 0.0
29/10:00am 26.6 27.2 19.5 65 4.6 ESE 15 22 8 12 1022.1 - 0.0
29/09:30am 26.8 27.2 19.9 66 4.5 E 17 24 9 13 1022.0 - 0.0
29/08:30am 26.2 27.1 19.3 65 4.5 ESE 13 20 7 11 1021.8 - 1.6
29/08:00am 25.1 26.2 19.7 72 3.5 E 13 17 7 9 1021.4 - 1.6
29/07:30am 24.3 26.5 20.4 79 2.6 E 9 13 5 7 1021.0 - 1.6
29/07:00am 22.9 25.3 20.1 84 1.8 SE 7 11 4 6 1020.6 - 1.6
29/06:30am 21.1 23.5 19.7 92 0.9 SSE 6 7 3 4 1020.3 - 1.6
29/06:00am 21.3 24.6 19.0 87 1.5 CALM 0 4 0 2 1019.8 1018.8 1.6
29/05:30am 21.9 24.2 19.5 86 1.5 ENE 6 7 3 4 1019.3 - 1.6
29/05:00am 22.5 25.3 20.4 88 1.4 E 6 7 3 4 1019.1 - 1.6
29/04:30am 22.4 25.1 20.3 88 1.4 E 6 7 3 4 1018.8 - 1.6
29/04:00am 22.4 26.3 20.3 88 1.4 CALM 0 0 0 0 1018.5 - 1.6
29/03:30am 22.3 26.1 20.2 88 1.4 CALM 0 0 0 0 1018.6 - 1.6
29/03:00am 22.4 26.3 20.3 88 1.4 CALM 0 0 0 0 1018.6 1017.6 1.6
29/02:30am 22.4 25.5 20.3 88 1.4 S 4 7 2 4 1018.5 - 1.6
29/02:00am 22.2 24.7 20.3 89 1.2 E 7 9 4 5 1018.6 - 1.6
29/01:30am 22.2 25.8 20.5 90 1.1 ESE 2 6 1 3 1018.8 - 1.6
29/01:00am 22.4 26.6 20.9 91 1.0 CALM 0 0 0 0 1019.0 - 1.6
29/12:30am 22.2 24.8 20.5 90 1.1 E 7 9 4 5 1019.3 - 1.6
29/12:00am 22.6 26.7 20.7 89 1.2 CALM 0 0 0 0 1019.6 1018.6 1.6
 
Date/Time
EST
Temp
°C
App
Temp
°C
Dew
Point
Rel
Hum
%
Delta-T
°C
Wind Press
QNH
hPa
Press
MSL
hPa
Rain
since 9 am
mm
Dir
 
Spd
km/h
Gust
km/h
Spd
kts
Gust
kts
28/11:30pm 22.6 26.6 20.5 88 1.4 CALM 0 0 0 0 1019.8 - 1.6
28/11:00pm 22.8 25.3 20.3 86 1.6 ESE 7 11 4 6 1019.8 - 1.6
28/10:30pm 22.9 26.7 20.2 85 1.8 CALM 0 0 0 0 1019.6 - 1.6
28/10:00pm 23.4 27.0 20.5 84 1.9 NE 2 7 1 4 1019.9 - 1.6
28/09:30pm 22.9 26.6 19.9 83 1.9 CALM 0 0 0 0 1019.8 - 1.6
28/09:00pm 23.6 26.0 20.1 81 2.3 NE 7 9 4 5 1019.5 1018.5 1.6
28/08:30pm 24.5 27.5 20.0 76 2.9 NE 4 6 2 3 1019.4 - 1.6
28/08:00pm 25.1 27.7 20.1 74 3.3 NNE 6 9 3 5 1019.2 - 1.6
28/07:30pm 24.5 28.4 21.2 82 2.2 NNE 2 7 1 4 1018.9 - 1.6
28/07:00pm 24.2 28.1 20.3 79 2.6 CALM 0 0 0 0 1018.4 - 1.6
28/06:30pm 24.9 28.7 20.2 75 3.1 CALM 0 0 0 0 1017.9 - 1.6
28/06:00pm 25.6 29.3 19.9 70 3.7 CALM 0 0 0 0 1017.6 1016.7 1.6
28/05:30pm 26.4 29.4 19.3 65 4.6 SSE 2 6 1 3 1017.4 - 1.6
28/05:00pm 26.2 28.2 19.1 65 4.6 S 7 9 4 5 1017.3 - 1.6
28/04:30pm 26.8 28.7 19.7 65 4.6 ENE 9 13 5 7 1016.6 - 1.6
28/04:00pm 26.7 26.4 19.1 63 4.9 ENE 19 24 10 13 1016.5 - 1.6
28/03:30pm 27.5 27.8 20.8 67 4.5 ENE 20 28 11 15 1016.6 - 1.6
28/03:00pm 28.8 31.2 21.6 65 4.9 NNE 11 22 6 12 1016.5 1015.6 1.6
28/02:30pm 28.4 30.7 21.4 66 4.7 N 11 15 6 8 1016.6 - 1.6
28/02:00pm 25.9 27.9 21.6 77 2.9 NNE 13 19 7 10 1017.0 - 1.6
28/01:30pm 29.6 31.5 20.5 58 6.1 SE 11 26 6 14 1017.2 - 0.0
28/01:00pm 32.0 34.2 19.6 47 8.2 E 7 11 4 6 1017.4 - 0.0
28/12:30pm 29.7 31.8 19.4 54 6.8 E 7 13 4 7 1018.2 - 0.0
28/12:00pm 30.3 33.7 20.2 54 6.7 ESE 2 7 1 4 1018.7 1017.7 0.0
28/11:30am 29.7 31.8 19.4 54 6.8 E 7 15 4 8 1019.3 - 0.0
28/11:00am 28.9 31.1 19.5 57 6.2 ENE 7 17 4 9 1019.7 - 0.0
28/10:30am 29.1 31.9 20.8 61 5.5 SSE 7 11 4 6 1020.0 - 0.0
28/10:00am 28.0 30.0 20.0 61 5.3 ESE 9 15 5 8 1020.2 - 0.0
28/09:30am 27.0 29.4 20.1 66 4.5 SE 7 9 4 5 1020.4 - 0.0
28/09:00am 26.4 29.0 20.5 70 3.9 E 7 11 4 6 1020.5 1019.5 0.2
28/08:30am 25.7 28.5 20.9 75 3.2 E 7 11 4 6 1020.3 - 0.2
28/08:00am 23.9 26.3 20.0 79 2.5 E 7 11 4 6 1020.1 - 0.2
28/07:30am 23.1 26.4 20.8 87 1.5 ESE 4 9 2 5 1019.9 - 0.2
28/07:00am 20.2 23.4 18.9 92 0.8 CALM 0 4 0 2 1019.5 - 0.2
28/06:30am 19.7 21.3 18.2 91 0.9 E 7 9 4 5 1019.1 - 0.2
28/06:00am 20.0 23.1 18.7 92 0.8 CALM 0 0 0 0 1018.8 1017.8 0.2
28/05:30am 19.7 22.3 18.5 93 0.8 SE 2 7 1 4 1018.5 - 0.2
28/05:00am 19.4 21.5 18.2 93 0.7 SSE 4 7 2 4 1018.2 - 0.2
28/04:30am 19.7 22.7 18.5 93 0.8 CALM 0 6 0 3 1017.6 - 0.2
28/04:00am 20.0 23.2 18.8 93 0.8 CALM 0 0 0 0 1017.4 - 0.2
28/03:45am 20.0 23.1 18.7 92 0.8 CALM 0 0 0 0 1017.2 - 0.2
28/03:30am 20.1 23.2 18.6 91 0.9 CALM 0 0 0 0 1017.2 - 0.2
28/03:24am 20.2 23.4 18.9 92 0.8 CALM 0 0 0 0 1017.3 - 0.2
28/03:00am 20.7 24.2 19.5 93 0.8 CALM 0 0 0 0 1017.5 1016.6 0.2
28/02:30am 20.6 23.9 19.1 91 1.0 CALM 0 0 0 0 1017.4 - 0.2
28/02:00am 20.8 24.1 19.1 90 1.1 CALM 0 0 0 0 1017.5 - 0.2
28/01:30am 21.6 25.4 20.2 92 0.9 CALM 0 0 0 0 1017.5 - 0.2
28/01:00am 22.0 25.8 20.1 89 1.2 CALM 0 0 0 0 1017.7 - 0.2
28/12:30am 22.5 26.2 20.0 86 1.6 CALM 0 0 0 0 1017.9 - 0.2
28/12:00am 23.5 27.7 21.0 86 1.6 CALM 0 0 0 0 1018.1 1017.1 0.2
 
Date/Time
EST
Temp
°C
App
Temp
°C
Dew
Point
Rel
Hum
%
Delta-T
°C
Wind Press
QNH
hPa
Press
MSL
hPa
Rain
since 9 am
mm
Dir
 
Spd
km/h
Gust
km/h
Spd
kts
Gust
kts
27/11:30pm 23.6 26.7 21.1 86 1.7 SSE 6 7 3 4 1018.4 - 0.2
27/11:00pm 23.7 27.8 20.8 84 1.9 CALM 0 4 0 2 1018.4 - 0.2
27/10:30pm 23.8 26.5 20.7 83 2.0 ENE 7 9 4 5 1018.5 - 0.2
27/10:00pm 24.1 27.0 20.6 81 2.3 E 6 9 3 5 1018.6 - 0.2
27/09:30pm 24.3 27.2 20.6 80 2.4 ESE 6 9 3 5 1018.6 - 0.2
27/09:00pm 24.7 28.0 20.8 79 2.6 ESE 4 7 2 4 1018.5 1017.5 0.2
27/08:30pm 25.1 28.2 21.4 80 2.5 E 7 11 4 6 1018.3 - 0.2
27/08:00pm 25.2 28.6 21.7 81 2.3 ESE 6 7 3 4 1018.2 - 0.2
27/07:30pm 24.7 29.0 21.2 81 2.3 CALM 0 0 0 0 1017.7 - 0.2
27/07:00pm 25.3 29.1 21.0 77 2.9 N 2 6 1 3 1017.4 - 0.2
27/06:30pm 25.2 28.1 21.1 78 2.7 E 7 11 4 6 1016.9 - 0.2
27/06:00pm 26.1 27.8 20.9 73 3.4 NE 13 17 7 9 1016.6 1015.7 0.2
27/05:30pm 26.2 28.5 20.7 71 3.6 NNE 9 17 5 9 1016.3 - 0.2
27/05:00pm 26.7 29.8 21.5 73 3.5 NNE 7 13 4 7 1016.0 - 0.2
27/04:30pm 26.4 28.8 21.6 75 3.2 E 11 13 6 7 1015.6 - 0.2
27/04:00pm 28.1 28.3 20.1 62 5.3 ESE 19 26 10 14 1015.4 - 0.0
27/03:30pm 31.5 32.8 18.5 46 8.5 SW 9 19 5 10 1015.2 - 0.0
27/03:00pm 32.7 33.6 19.2 44 8.9 W 13 19 7 10 1015.3 1014.3 0.0
27/02:30pm 31.3 32.9 18.3 46 8.4 WNW 7 19 4 10 1015.6 - 0.0
27/02:00pm 31.7 32.3 18.7 46 8.5 SW 13 17 7 9 1015.9 - 0.0
27/01:30pm 31.5 32.4 19.2 48 8.1 WSW 13 20 7 11 1016.5 - 0.0
27/01:00pm 32.0 34.1 20.9 52 7.5 WNW 11 15 6 8 1017.0 - 0.0
27/12:30pm 29.9 31.4 19.0 52 7.1 WSW 9 15 5 8 1017.6 - 0.0
27/12:00pm 30.9 32.4 18.9 48 7.8 WNW 9 19 5 10 1018.3 1017.3 0.0
27/11:30am 29.4 31.1 19.4 55 6.6 NNW 9 15 5 8 1018.9 - 0.0
27/11:00am 29.2 31.0 19.5 56 6.4 N 9 13 5 7 1019.5 - 0.0
27/10:30am 28.1 30.4 19.9 61 5.4 N 7 11 4 6 1020.0 - 0.0
27/10:00am 27.3 29.9 20.1 64 4.7 W 6 11 3 6 1020.2 - 0.0
27/09:30am 27.4 29.5 21.0 68 4.3 NW 11 17 6 9 1020.3 - 0.0
27/09:00am 26.7 29.8 21.5 73 3.5 NW 7 11 4 6 1020.3 1019.3 0.0
27/08:30am 25.1 28.0 20.6 76 3.0 NNW 6 9 3 5 1020.4 - 0.0
27/08:00am 24.8 27.8 20.9 79 2.6 NW 6 9 3 5 1020.1 - 0.0
27/07:30am 23.4 26.4 20.0 81 2.2 ESE 4 6 2 3 1019.9 - 0.0
27/07:00am 22.7 25.9 19.7 83 1.9 NE 2 7 1 4 1019.5 - 0.0
27/06:30am 21.9 25.4 19.5 86 1.5 CALM 0 0 0 0 1019.4 - 0.0
27/06:00am 21.4 24.5 18.6 84 1.8 CALM 0 0 0 0 1019.2 1018.2 0.0
27/05:30am 21.3 24.4 18.7 85 1.6 CALM 0 0 0 0 1018.8 - 0.0
27/05:00am 21.5 24.7 18.9 85 1.7 CALM 0 0 0 0 1018.5 - 0.0
27/04:30am 21.1 24.1 18.5 85 1.6 CALM 0 0 0 0 1018.2 - 0.0
27/04:00am 21.8 25.0 18.8 83 1.9 CALM 0 0 0 0 1017.9 - 0.0
27/03:30am 21.6 24.5 18.2 81 2.1 CALM 0 6 0 3 1017.7 - 0.0
27/03:00am 22.6 25.6 18.4 77 2.7 CALM 0 0 0 0 1017.9 1016.9 0.0
27/02:30am 22.7 25.6 18.3 76 2.8 CALM 0 0 0 0 1018.1 - 0.0
27/02:00am 22.7 25.7 18.5 77 2.7 CALM 0 0 0 0 1018.1 - 0.0
27/01:30am 22.4 24.2 18.4 78 2.5 W 6 7 3 4 1018.1 - 0.0
27/01:00am 22.7 25.6 18.3 76 2.8 CALM 0 0 0 0 1018.3 - 0.0
27/12:30am 23.0 25.9 18.3 75 3.0 CALM 0 0 0 0 1018.5 - 0.0
27/12:00am 22.6 25.2 17.5 73 3.2 CALM 0 0 0 0 1018.6 1017.6 0.0
 
Date/Time
EST
Temp
°C
App
Temp
°C
Dew
Point
Rel
Hum
%
Delta-T
°C
Wind Press
QNH
hPa
Press
MSL
hPa
Rain
since 9 am
mm
Dir
 
Spd
km/h
Gust
km/h
Spd
kts
Gust
kts
26/11:30pm 23.4 26.1 17.8 71 3.5 CALM 0 0 0 0 1018.8 - 0.0
26/11:00pm 23.7 26.4 17.7 69 3.8 CALM 0 7 0 4 1018.7 - 0.0
26/10:30pm 23.6 25.2 16.9 66 4.2 NNE 4 7 2 4 1018.7 - 0.0

Other Formats:

Comma delimited format used in spreadsheet applications
http://www.bom.gov.au/fwo/IDQ60801/IDQ60801.94376.axf

JavaScript Object Notation format (JSON) in row-major order
http://www.bom.gov.au/fwo/IDQ60801/IDQ60801.94376.json